Time;durP1;ratioP1;P1;durP2;ratioP2;P2;SDS_P1;SDS_P2;PMS_P1;PMS_P2;Temp;Humidity;BMP_temperature;BMP_pressure;BME280_temperature;BME280_humidity;BME280_pressure;Samples;Min_cycle;Max_cycle;Signal;HPM_P1;HPM_P2
2024/01/07 00:00:07;;;;;;;11.82;10.57;;;;;;;8.23;100.00;99387.34;4978582;28;20465;-83
2024/01/07 00:02:39;;;;;;;12.38;10.70;;;;;;;8.27;100.00;99383.41;4980989;28;20407;-80
2024/01/07 00:05:07;;;;;;;13.90;10.30;;;;;;;8.10;100.00;99368.38;4965172;28;20046;-79
2024/01/07 00:07:37;;;;;;;13.45;10.52;;;;;;;8.32;100.00;99389.06;4990666;28;20056;-80
2024/01/07 00:10:05;;;;;;;15.20;11.13;;;;;;;8.23;100.00;99390.00;5013798;28;20485;-80
2024/01/07 00:12:31;;;;;;;13.32;10.68;;;;;;;8.33;100.00;99385.47;5014098;28;20420;-80
2024/01/07 00:14:58;;;;;;;15.65;12.23;;;;;;;8.35;100.00;99383.50;4995265;28;20076;-81
2024/01/07 00:17:30;;;;;;;18.13;12.77;;;;;;;8.39;100.00;99375.25;4994529;28;20111;-83
2024/01/07 00:19:57;;;;;;;18.23;12.13;;;;;;;7.84;100.00;99295.16;4986788;28;20052;-82
2024/01/07 00:22:24;;;;;;;15.02;12.27;;;;;;;8.30;100.00;99382.25;4993065;28;20108;-83
2024/01/07 00:24:51;;;;;;;13.73;11.50;;;;;;;7.84;100.00;99289.84;4989284;28;20045;-82
2024/01/07 00:27:19;;;;;;;17.00;13.27;;;;;;;8.45;100.00;99387.91;4994894;28;20060;-82
2024/01/07 00:29:45;;;;;;;17.67;12.65;;;;;;;8.48;100.00;99388.41;4978460;28;20053;-79
2024/01/07 00:32:13;;;;;;;15.10;12.93;;;;;;;8.35;100.00;99372.91;4974252;28;20111;-81
2024/01/07 00:34:39;;;;;;;15.52;12.07;;;;;;;8.16;100.00;99357.22;4973675;28;20049;-81
2024/01/07 00:37:06;;;;;;;17.13;13.68;;;;;;;8.07;100.00;99351.00;4976563;28;20480;-82
2024/01/07 00:39:33;;;;;;;19.55;14.60;;;;;;;8.18;100.00;99365.84;4996113;28;20053;-80
2024/01/07 00:42:00;;;;;;;17.08;13.00;;;;;;;7.91;100.00;99317.34;5014883;28;20140;-79
2024/01/07 00:44:29;;;;;;;14.55;12.65;;;;;;;8.04;100.00;99326.69;4981002;28;20489;-82
2024/01/07 00:47:00;;;;;;;19.08;13.40;;;;;;;8.17;100.00;99369.44;4954926;28;20415;-82
2024/01/07 00:49:27;;;;;;;15.15;12.75;;;;;;;8.30;100.00;99377.84;4992986;28;20080;-81
2024/01/07 00:51:57;;;;;;;15.85;12.43;;;;;;;8.21;100.00;99349.66;4976533;28;20236;-82
2024/01/07 00:54:24;;;;;;;17.65;13.05;;;;;;;8.38;100.00;99384.19;5008158;28;20131;-82
2024/01/07 00:56:51;;;;;;;17.17;12.38;;;;;;;8.13;100.00;99349.56;4978983;28;20080;-80
2024/01/07 00:59:18;;;;;;;17.45;13.32;;;;;;;8.16;100.00;99341.34;4970707;28;20068;-81
2024/01/07 01:01:44;;;;;;;19.40;14.13;;;;;;;8.24;100.00;99365.22;4972441;28;20563;-80
2024/01/07 01:04:11;;;;;;;16.13;13.45;;;;;;;8.31;100.00;99386.59;4953072;28;20315;-80
2024/01/07 01:06:40;;;;;;;15.15;12.43;;;;;;;8.50;100.00;99401.50;4967103;28;20053;-80
2024/01/07 01:09:09;;;;;;;18.75;13.77;;;;;;;8.48;100.00;99399.00;5008208;28;20068;-81
2024/01/07 01:11:35;;;;;;;17.13;13.82;;;;;;;8.32;100.00;99404.09;4985625;28;20285;-79
2024/01/07 01:14:02;;;;;;;16.25;12.63;;;;;;;8.24;100.00;99386.34;4969188;28;20054;-81
2024/01/07 01:16:29;;;;;;;15.25;12.80;;;;;;;8.28;100.00;99382.44;4970218;28;20069;-80
2024/01/07 01:18:58;;;;;;;15.52;12.43;;;;;;;8.37;100.00;99406.31;4984123;28;20137;-81
2024/01/07 01:21:29;;;;;;;17.02;13.65;;;;;;;7.97;100.00;99352.91;4971566;28;20489;-81
2024/01/07 01:23:58;;;;;;;17.13;14.13;;;;;;;8.33;100.00;99408.44;4927184;28;20441;-80
2024/01/07 01:26:25;;;;;;;18.60;13.07;;;;;;;8.19;100.00;99379.88;4936322;28;20054;-79
2024/01/07 01:28:56;;;;;;;16.67;13.73;;;;;;;8.27;100.00;99391.34;4965192;28;20052;-81
2024/01/07 01:31:23;;;;;;;16.08;12.65;;;;;;;8.41;100.00;99408.53;4977380;28;20413;-78
2024/01/07 01:33:50;;;;;;;15.30;12.43;;;;;;;8.35;100.00;99404.66;4972468;28;20046;-77
2024/01/07 01:36:17;;;;;;;15.88;12.52;;;;;;;8.26;100.00;99384.41;4980280;28;20417;-78
2024/01/07 01:38:44;;;;;;;16.35;12.90;;;;;;;8.11;100.00;99367.41;4982589;28;20370;-81
2024/01/07 01:41:11;;;;;;;16.27;13.00;;;;;;;8.06;100.00;99373.16;4988482;28;20053;-78
2024/01/07 01:43:42;;;;;;;16.95;13.18;;;;;;;8.17;100.00;99390.59;4979794;28;20277;-80
2024/01/07 01:46:09;;;;;;;16.67;12.60;;;;;;;8.29;100.00;99399.13;4947023;28;20514;-77
2024/01/07 01:48:37;;;;;;;17.05;13.13;;;;;;;8.19;100.00;99391.28;4930066;28;20046;-79
2024/01/07 01:51:07;;;;;;;16.85;12.80;;;;;;;8.40;100.00;99416.59;4953350;28;20133;-82
2024/01/07 01:53:38;;;;;;;14.95;13.23;;;;;;;8.24;100.00;99402.22;4939635;28;20138;-79
2024/01/07 01:56:06;;;;;;;16.13;12.60;;;;;;;8.33;100.00;99408.44;4960789;28;20193;-79
2024/01/07 01:58:37;;;;;;;15.23;13.05;;;;;;;8.26;100.00;99399.44;4959032;28;20355;-81
2024/01/07 02:01:04;;;;;;;14.60;11.93;;;;;;;8.23;100.00;99403.22;4963728;28;20417;-81
2024/01/07 02:03:32;;;;;;;14.45;12.30;;;;;;;8.30;100.00;99417.50;4969085;28;20058;-81
2024/01/07 02:05:58;;;;;;;16.25;11.98;;;;;;;8.13;100.00;99394.50;4986028;28;20057;-82
2024/01/07 02:08:26;;;;;;;13.15;11.60;;;;;;;7.92;100.00;99353.34;4985665;28;20054;-80
2024/01/07 02:10:53;;;;;;;15.57;13.05;;;;;;;8.33;100.00;99411.06;4973113;28;20794;-81
2024/01/07 02:13:25;;;;;;;14.55;12.00;;;;;;;7.46;100.00;99281.22;4969822;28;20451;-81
2024/01/07 02:16:02;;;;;;;17.55;13.27;;;;;;;8.19;100.00;99404.50;4953533;28;20274;-82
2024/01/07 02:18:37;;;;;;;17.13;12.82;;;;;;;8.14;100.00;99399.66;4937710;28;20058;-81
2024/01/07 02:21:18;;;;;;;;;;;;;;;8.25;100.00;99419.75;4934020;28;20053;-80
2024/01/07 02:24:04;;;;;;;17.63;13.93;;;;;;;8.05;100.00;99383.84;4932057;28;19960;-82
2024/01/07 02:26:38;;;;;;;17.10;13.70;;;;;;;8.10;100.00;99387.69;4938967;28;20093;-80
2024/01/07 02:29:15;;;;;;;14.48;12.95;;;;;;;8.28;100.00;99405.41;4916951;28;20318;-80
2024/01/07 02:31:45;;;;;;;14.98;11.93;;;;;;;8.24;100.00;99399.56;4923870;28;20130;-80
2024/01/07 02:34:12;;;;;;;15.93;12.35;;;;;;;8.23;100.00;99403.22;4966181;28;20482;-80
2024/01/07 02:36:39;;;;;;;16.75;12.80;;;;;;;8.27;100.00;99403.72;4943011;28;20054;-80
2024/01/07 02:39:12;;;;;;;14.90;12.45;;;;;;;8.29;100.00;99410.53;4935696;28;20045;-81
2024/01/07 02:41:49;;;;;;;18.23;13.93;;;;;;;8.08;100.00;99372.97;4944627;28;20057;-79
2024/01/07 02:44:16;;;;;;;16.55;12.38;;;;;;;7.92;100.00;99340.13;4956756;28;20140;-81
2024/01/07 02:46:47;;;;;;;16.63;13.65;;;;;;;8.35;100.00;99411.75;4950129;28;20502;-80
2024/01/07 02:49:14;;;;;;;;;;;;;;;8.41;100.00;99413.00;4948241;28;20772;-79
2024/01/07 02:51:42;;;;;;;17.85;13.40;;;;;;;8.41;100.00;99415.63;4935584;28;20457;-79
2024/01/07 02:54:09;;;;;;;15.93;12.52;;;;;;;8.11;100.00;99376.16;4946712;28;20042;-79
2024/01/07 02:56:37;;;;;;;16.60;12.38;;;;;;;8.33;100.00;99406.63;4960555;28;20470;-78
2024/01/07 02:59:06;;;;;;;15.88;12.27;;;;;;;7.83;100.00;99334.91;4970568;28;20053;-82
2024/01/07 03:01:39;;;;;;;15.48;12.55;;;;;;;7.68;100.00;99308.19;4961895;28;20422;-78
2024/01/07 03:04:10;;;;;;;17.08;12.38;;;;;;;7.93;100.00;99344.41;4939898;28;20064;-81
2024/01/07 03:06:38;;;;;;;15.02;11.98;;;;;;;8.12;100.00;99382.28;4928962;28;20470;-82
2024/01/07 03:09:08;;;;;;;17.98;12.23;;;;;;;8.19;100.00;99382.50;4928529;28;20438;-81
2024/01/07 03:11:41;;;;;;;13.52;11.30;;;;;;;8.18;100.00;99386.97;4964033;28;20128;-80
2024/01/07 03:14:07;;;;;;;12.32;10.50;;;;;;;8.12;100.00;99372.53;4944804;28;20460;-78
2024/01/07 03:16:34;;;;;;;14.18;10.85;;;;;;;7.88;100.00;99340.56;4966670;28;20140;-79
2024/01/07 03:19:04;;;;;;;15.88;11.68;;;;;;;8.31;100.00;99402.47;4990912;28;20380;-80
2024/01/07 03:21:34;;;;;;;12.23;10.25;;;;;;;8.23;100.00;99400.56;4973428;28;20516;-80
2024/01/07 03:24:01;;;;;;;13.38;10.70;;;;;;;8.04;100.00;99366.34;4978470;28;20540;-78
2024/01/07 03:26:32;;;;;;;14.65;10.82;;;;;;;7.83;100.00;99329.63;4952506;28;20061;-79
2024/01/07 03:29:00;;;;;;;14.82;11.60;;;;;;;8.16;100.00;99388.94;4946079;28;20598;-77
2024/01/07 03:31:31;;;;;;;15.98;11.93;;;;;;;8.22;100.00;99404.19;4943931;28;20384;-81
2024/01/07 03:33:58;;;;;;;15.43;11.02;;;;;;;7.98;100.00;99373.03;4980732;28;20050;-78
2024/01/07 03:36:28;;;;;;;14.65;11.10;;;;;;;8.07;100.00;99376.63;4971277;28;20046;-78
2024/01/07 03:38:55;;;;;;;17.27;10.93;;;;;;;7.96;100.00;99360.97;4953859;28;20085;-78
2024/01/07 03:41:21;;;;;;;12.23;10.77;;;;;;;8.21;100.00;99391.97;4945041;28;20049;-80
2024/01/07 03:43:50;;;;;;;14.55;11.18;;;;;;;8.34;100.00;99402.16;4975132;28;20072;-80
2024/01/07 03:46:17;;;;;;;13.32;11.23;;;;;;;8.26;100.00;99416.13;4956865;28;20448;-81
2024/01/07 03:48:44;;;;;;;13.98;12.23;;;;;;;8.24;100.00;99402.22;4952904;28;20543;-78
2024/01/07 03:51:12;;;;;;;15.15;12.38;;;;;;;8.29;100.00;99405.25;4940361;28;20325;-80
2024/01/07 03:53:42;;;;;;;16.52;12.73;;;;;;;8.31;99.76;99415.69;4944060;28;20087;-79
2024/01/07 03:56:08;;;;;;;15.80;12.50;;;;;;;8.13;99.59;99394.50;4978435;28;20041;-80
2024/01/07 03:58:35;;;;;;;17.90;13.57;;;;;;;8.24;99.17;99418.09;4962067;28;20049;-79
2024/01/07 04:01:04;;;;;;;19.45;14.32;;;;;;;8.27;99.34;99420.41;4938497;28;20530;-79
2024/01/07 04:03:32;;;;;;;19.05;14.32;;;;;;;8.10;100.00;99415.97;4917665;28;20057;-79
2024/01/07 04:05:58;;;;;;;20.70;13.27;;;;;;;8.12;99.79;99416.66;4939966;28;20406;-79
2024/01/07 04:08:26;;;;;;;17.15;12.88;;;;;;;8.17;99.51;99418.84;4968872;28;20057;-80
2024/01/07 04:10:57;;;;;;;17.17;13.77;;;;;;;8.07;99.71;99403.88;4936236;28;20045;-78
2024/01/07 04:13:24;;;;;;;16.92;13.65;;;;;;;8.02;100.00;99411.41;4963848;28;20059;-79
2024/01/07 04:15:57;;;;;;;18.38;14.82;;;;;;;8.05;100.00;99415.56;4950220;28;20334;-82
2024/01/07 04:18:28;;;;;;;18.45;14.52;;;;;;;8.10;100.00;99423.88;4959112;28;20666;-80
2024/01/07 04:21:05;;;;;;;17.05;13.48;;;;;;;7.68;99.25;99347.81;4944900;28;20049;-81
2024/01/07 04:23:32;;;;;;;17.20;13.82;;;;;;;7.85;99.52;99376.06;4986706;28;20050;-79
2024/01/07 04:26:03;;;;;;;16.92;13.77;;;;;;;7.98;99.35;99402.13;4960286;28;20121;-80
2024/01/07 04:28:34;;;;;;;16.23;13.68;;;;;;;7.97;100.00;99412.84;4965229;28;20057;-78
2024/01/07 04:31:01;;;;;;;16.63;13.23;;;;;;;7.89;100.00;99398.56;4941926;28;20227;-80
2024/01/07 04:33:28;;;;;;;12.90;11.00;;;;;;;7.74;100.00;99394.75;4955660;28;20068;-78
2024/01/07 04:35:58;;;;;;;13.80;11.07;;;;;;;7.89;100.00;99392.47;4963938;28;20049;-78
2024/01/07 04:38:27;;;;;;;14.48;11.02;;;;;;;7.92;100.00;99408.84;4973819;28;20092;-78
2024/01/07 04:40:54;;;;;;;13.80;11.70;;;;;;;8.04;100.00;99413.94;4944621;28;20058;-80
2024/01/07 04:43:25;;;;;;;15.30;12.77;;;;;;;8.01;99.01;99403.63;4968696;28;20045;-80
2024/01/07 04:45:51;;;;;;;14.43;12.55;;;;;;;8.02;99.03;99411.41;4977336;28;20053;-78
2024/01/07 04:48:18;;;;;;;16.67;12.60;;;;;;;8.17;98.11;99422.31;4930204;28;20054;-81
2024/01/07 04:50:45;;;;;;;14.13;11.80;;;;;;;8.21;98.11;99442.19;4955078;28;20077;-79
2024/01/07 04:53:16;;;;;;;16.60;12.55;;;;;;;8.05;98.27;99423.50;4903854;28;20053;-81
2024/01/07 04:55:52;;;;;;;15.93;13.20;;;;;;;8.00;98.99;99431.06;4932562;28;20045;-80
2024/01/07 04:58:20;;;;;;;16.13;13.07;;;;;;;8.14;98.87;99462.28;4945350;28;20045;-80
2024/01/07 05:00:47;;;;;;;16.30;13.15;;;;;;;8.06;98.78;99448.97;4965124;28;20480;-77
2024/01/07 05:03:21;;;;;;;15.48;13.73;;;;;;;8.04;98.87;99445.66;4978674;28;20239;-79
2024/01/07 05:05:49;;;;;;;17.55;13.38;;;;;;;8.08;99.28;99453.13;4956960;28;20434;-78
2024/01/07 05:08:20;;;;;;;17.15;14.52;;;;;;;8.06;99.25;99459.53;4916611;28;20572;-80
2024/01/07 05:10:56;;;;;;;19.13;14.55;;;;;;;7.93;100.00;99459.88;4917967;28;20080;-80
2024/01/07 05:13:31;;;;;;;17.65;14.25;;;;;;;7.34;99.75;99356.31;4956681;28;20056;-78
2024/01/07 05:15:58;;;;;;;20.05;15.20;;;;;;;7.96;100.00;99456.09;4980015;28;20681;-79
2024/01/07 05:18:28;;;;;;;21.40;15.70;;;;;;;7.85;99.93;99434.19;4968506;28;20050;-80
2024/01/07 05:20:55;;;;;;;20.23;14.32;;;;;;;7.83;99.65;99436.16;4947062;28;20233;-81
2024/01/07 05:23:27;;;;;;;20.70;15.93;;;;;;;7.83;99.82;99445.88;4912877;28;20274;-79
2024/01/07 05:26:05;;;;;;;17.42;14.27;;;;;;;7.83;100.00;99465.22;4928807;28;20469;-80
2024/01/07 05:28:33;;;;;;;19.83;13.68;;;;;;;7.81;100.00;99450.47;4927445;28;20053;-80
2024/01/07 05:30:59;;;;;;;20.73;15.75;;;;;;;7.84;100.00;99469.53;4915652;28;20062;-80
2024/01/07 05:33:30;;;;;;;18.02;14.90;;;;;;;7.90;100.00;99468.94;4972239;28;20520;-79
2024/01/07 05:36:02;;;;;;;18.73;13.97;;;;;;;7.87;100.00;99463.13;4945367;28;20190;-79
2024/01/07 05:38:34;;;;;;;20.17;14.05;;;;;;;8.00;100.00;99468.88;4927281;28;20895;-80
2024/01/07 05:41:08;;;;;;;14.10;12.27;;;;;;;7.50;99.98;99413.81;4915504;28;20244;-79
2024/01/07 05:43:43;;;;;;;15.57;13.25;;;;;;;7.65;100.00;99437.91;4928723;28;20687;-81
2024/01/07 05:46:11;;;;;;;13.98;11.90;;;;;;;7.62;100.00;99439.03;4904320;28;20504;-80
2024/01/07 05:48:44;;;;;;;13.10;10.75;;;;;;;7.94;100.00;99474.78;4918758;28;20245;-80
2024/01/07 05:51:14;;;;;;;13.75;10.27;;;;;;;7.92;99.84;99472.25;4959869;28;20119;-80
2024/01/07 05:53:43;;;;;;;13.65;9.90;;;;;;;7.90;100.00;99471.56;4973245;28;20052;-77
2024/01/07 05:56:10;;;;;;;12.40;10.73;;;;;;;7.96;100.00;99483.38;4973677;28;20057;-80
2024/01/07 05:58:37;;;;;;;13.10;9.68;;;;;;;7.92;99.70;99477.56;4970108;28;20137;-79
2024/01/07 06:01:04;;;;;;;12.68;10.43;;;;;;;7.62;100.00;99444.31;4965078;28;20316;-79
2024/01/07 06:03:31;;;;;;;11.30;9.23;;;;;;;7.82;100.00;99481.22;4975424;28;20063;-80
2024/01/07 06:05:58;;;;;;;11.48;8.82;;;;;;;7.79;100.00;99486.78;4957357;28;20050;-79
2024/01/07 06:08:32;;;;;;;12.73;9.30;;;;;;;7.87;100.00;99478.97;4976302;28;20857;-80
2024/01/07 06:11:00;;;;;;;11.50;8.68;;;;;;;7.33;100.00;99402.19;4981780;28;20313;-78
2024/01/07 06:13:27;;;;;;;10.07;8.35;;;;;;;7.69;100.00;99465.69;4987110;28;20184;-78
2024/01/07 06:15:54;;;;;;;10.68;8.65;;;;;;;7.82;100.00;99507.66;4968862;28;20068;-78
2024/01/07 06:18:21;;;;;;;9.98;8.88;;;;;;;7.79;100.00;99505.28;4964088;28;20372;-79
2024/01/07 06:20:48;;;;;;;9.38;6.93;;;;;;;7.80;100.00;99489.28;4947826;28;20081;-81
2024/01/07 06:23:15;;;;;;;6.82;6.13;;;;;;;7.71;100.00;99485.69;4957718;28;20481;-79
2024/01/07 06:25:42;;;;;;;7.82;6.50;;;;;;;7.80;100.00;99488.47;4947196;28;20517;-80
2024/01/07 06:28:10;;;;;;;6.82;5.57;;;;;;;7.77;100.00;99486.94;4938590;28;20050;-80
2024/01/07 06:30:37;;;;;;;7.93;5.55;;;;;;;7.76;99.74;99487.09;4955267;28;20042;-83
2024/01/07 06:33:06;;;;;;;6.93;5.28;;;;;;;7.77;99.71;99500.16;4937576;28;20057;-81
2024/01/07 06:35:33;;;;;;;7.85;5.35;;;;;;;7.87;99.85;99527.38;4965332;28;20435;-80
2024/01/07 06:38:00;;;;;;;7.68;5.63;;;;;;;7.86;99.45;99488.72;4954858;28;20058;-79
2024/01/07 06:40:27;;;;;;;6.47;5.30;;;;;;;7.92;98.63;99530.41;4951338;28;20129;-80
2024/01/07 06:42:54;;;;;;;5.53;4.90;;;;;;;7.73;98.75;99498.78;4941580;28;20691;-79
2024/01/07 06:45:21;;;;;;;5.10;4.57;;;;;;;7.83;99.03;99515.41;4955387;28;20683;-81
2024/01/07 06:47:49;;;;;;;4.82;4.25;;;;;;;7.86;98.93;99525.72;4974969;28;20444;-80
2024/01/07 06:50:21;;;;;;;5.88;4.90;;;;;;;7.86;99.36;99531.00;4978368;28;20632;-82
2024/01/07 06:52:49;;;;;;;7.10;5.18;;;;;;;7.48;98.99;99476.50;4992896;28;20561;-82
2024/01/07 06:55:20;;;;;;;6.03;5.00;;;;;;;7.58;99.55;99508.16;4972610;28;20053;-82
2024/01/07 06:57:46;;;;;;;6.03;5.43;;;;;;;7.77;100.00;99534.50;4984370;28;20049;-81
2024/01/07 07:00:14;;;;;;;7.38;5.65;;;;;;;7.66;100.00;99527.56;4986449;28;20077;-82
2024/01/07 07:02:40;;;;;;;5.57;4.60;;;;;;;7.44;100.00;99477.75;4966429;28;20124;-82
2024/01/07 07:05:08;;;;;;;8.73;4.15;;;;;;;7.54;100.00;99514.69;4989049;28;20049;-81
2024/01/07 07:07:41;;;;;;;4.45;3.97;;;;;;;7.42;100.00;99496.34;4969599;28;20049;-81
2024/01/07 07:10:08;;;;;;;5.18;4.20;;;;;;;7.79;100.00;99550.19;4958790;28;20108;-80
2024/01/07 07:12:35;;;;;;;6.43;4.10;;;;;;;7.53;100.00;99528.88;4986555;28;20518;-79
2024/01/07 07:15:03;;;;;;;3.63;3.28;;;;;;;7.70;100.00;99557.19;4972361;28;20054;-82
2024/01/07 07:17:30;;;;;;;4.50;3.63;;;;;;;7.75;100.00;99549.66;4973983;28;20458;-80
2024/01/07 07:19:57;;;;;;;4.63;3.70;;;;;;;7.55;100.00;99524.25;4982562;28;20046;-82
2024/01/07 07:22:24;;;;;;;4.90;3.53;;;;;;;7.74;100.00;99557.72;4970425;28;20141;-80
2024/01/07 07:24:50;;;;;;;4.20;3.60;;;;;;;7.79;100.00;99560.75;4972704;28;20266;-80
2024/01/07 07:27:17;;;;;;;3.65;3.35;;;;;;;7.40;100.00;99502.75;4971329;28;20069;-81
2024/01/07 07:29:44;;;;;;;4.30;3.40;;;;;;;7.52;99.21;99512.19;4963005;28;20069;-81
2024/01/07 07:32:16;;;;;;;3.80;3.30;;;;;;;7.45;99.62;99519.88;4971904;28;20124;-80
2024/01/07 07:34:46;;;;;;;5.10;2.75;;;;;;;7.65;100.00;99559.44;4968992;28;20046;-81
2024/01/07 07:37:17;;;;;;;4.28;3.10;;;;;;;7.82;99.10;99582.47;4970782;28;20412;-82
2024/01/07 07:39:49;;;;;;;3.05;2.65;;;;;;;7.59;99.55;99555.53;4989698;28;20533;-80
2024/01/07 07:42:20;;;;;;;3.00;2.70;;;;;;;7.62;100.00;99560.56;4990433;28;20050;-82
2024/01/07 07:44:47;;;;;;;4.25;2.80;;;;;;;7.75;99.47;99581.38;4983767;28;20046;-82
2024/01/07 07:47:14;;;;;;;3.33;3.03;;;;;;;7.56;100.00;99561.09;4988540;28;20137;-82
2024/01/07 07:49:41;;;;;;;4.75;2.78;;;;;;;7.72;100.00;99597.50;5005984;28;20674;-81
2024/01/07 07:52:14;;;;;;;3.35;2.97;;;;;;;7.64;100.00;99586.81;5002494;28;20045;-80
2024/01/07 07:54:44;;;;;;;2.67;2.38;;;;;;;7.66;100.00;99595.44;5022604;28;20057;-81
2024/01/07 07:57:24;;;;;;;3.05;2.20;;;;;;;7.64;100.00;99589.44;4966712;28;20046;-82
2024/01/07 07:59:52;;;;;;;2.50;2.30;;;;;;;7.57;100.00;99573.31;4980357;28;20454;-81
2024/01/07 08:02:20;;;;;;;2.35;2.15;;;;;;;7.78;100.00;99590.81;4954820;28;20639;-80
2024/01/07 08:04:49;;;;;;;2.30;2.10;;;;;;;7.77;100.00;99597.91;4969414;28;20042;-83
2024/01/07 08:07:16;;;;;;;2.58;2.15;;;;;;;7.31;100.00;99528.22;4970464;28;20045;-81
2024/01/07 08:09:43;;;;;;;2.28;2.03;;;;;;;7.72;100.00;99576.38;4972426;28;20042;-80
2024/01/07 08:12:11;;;;;;;2.53;2.30;;;;;;;7.85;100.00;99600.66;4967332;28;20562;-82
2024/01/07 08:14:47;;;;;;;2.90;2.20;;;;;;;7.85;99.85;99603.31;4995515;28;20405;-82
2024/01/07 08:17:14;;;;;;;3.17;2.10;;;;;;;7.80;99.68;99583.59;5001285;28;20046;-81
2024/01/07 08:19:40;;;;;;;2.67;2.03;;;;;;;7.72;99.26;99581.66;5004288;28;20042;-81
2024/01/07 08:22:09;;;;;;;2.58;2.20;;;;;;;7.29;99.55;99516.97;5017777;28;20049;-80
2024/01/07 08:24:36;;;;;;;2.15;1.85;;;;;;;7.83;99.80;99602.59;4985240;28;20045;-84
2024/01/07 08:27:06;;;;;;;2.55;1.77;;;;;;;7.70;99.87;99589.72;4962190;28;20046;-82
2024/01/07 08:29:35;;;;;;;4.20;1.98;;;;;;;7.76;100.00;99614.72;4981038;28;20050;-82
2024/01/07 08:32:02;;;;;;;2.92;2.33;;;;;;;7.81;100.00;99622.22;4984175;28;20053;-80
2024/01/07 08:34:36;;;;;;;2.60;2.15;;;;;;;7.74;100.00;99606.09;4977947;28;20459;-80
2024/01/07 08:37:11;;;;;;;4.47;1.92;;;;;;;7.71;100.00;99612.50;4917790;28;20057;-80
2024/01/07 08:39:38;;;;;;;2.50;1.67;;;;;;;7.82;100.00;99634.47;4962681;28;20190;-82
2024/01/07 08:42:05;;;;;;;2.33;2.03;;;;;;;7.89;100.00;99640.88;4983072;28;20066;-80
2024/01/07 08:44:34;;;;;;;1.90;1.70;;;;;;;7.60;100.00;99591.56;4966559;28;20104;-81
2024/01/07 08:47:08;;;;;;;2.30;1.80;;;;;;;7.77;99.91;99631.41;4937391;28;20518;-81
2024/01/07 08:49:43;;;;;;;1.88;1.70;;;;;;;7.82;100.00;99632.66;4915655;28;20060;-80
2024/01/07 08:52:11;;;;;;;3.42;1.83;;;;;;;7.93;100.00;99642.22;4939936;28;20404;-78
2024/01/07 08:54:38;;;;;;;2.38;1.58;;;;;;;7.94;100.00;99643.91;4978007;28;20049;-78
2024/01/07 08:57:04;;;;;;;1.90;1.70;;;;;;;8.03;100.00;99658.06;4979902;28;20075;-81
2024/01/07 08:59:36;;;;;;;2.47;1.70;;;;;;;7.78;99.41;99623.34;4981366;28;20069;-78
2024/01/07 09:02:06;;;;;;;1.90;1.63;;;;;;;6.92;100.00;99488.69;5000025;28;20054;-81
2024/01/07 09:04:36;;;;;;;2.33;1.98;;;;;;;7.80;100.00;99624.03;4994513;28;20111;-79
2024/01/07 09:07:03;;;;;;;2.22;1.70;;;;;;;7.62;100.00;99592.25;4996178;28;20057;-80
2024/01/07 09:09:30;;;;;;;2.28;1.75;;;;;;;7.56;100.00;99581.41;4986168;28;20046;-78
2024/01/07 09:12:00;;;;;;;1.83;1.70;;;;;;;7.97;99.35;99648.06;5005157;28;20083;-78
2024/01/07 09:14:27;;;;;;;3.20;1.95;;;;;;;7.89;99.81;99638.22;4983257;28;20050;-78
2024/01/07 09:16:55;;;;;;;2.17;1.98;;;;;;;7.95;100.00;99652.66;4974815;28;20480;-78
2024/01/07 09:19:23;;;;;;;3.47;1.90;;;;;;;7.41;99.76;99563.38;4988150;28;20153;-79
2024/01/07 09:21:50;;;;;;;3.42;1.95;;;;;;;8.04;100.00;99670.31;4999474;28;20137;-80
2024/01/07 09:24:19;;;;;;;2.47;1.98;;;;;;;8.03;99.61;99663.34;5005074;28;20439;-81
2024/01/07 09:26:46;;;;;;;4.63;1.95;;;;;;;8.05;100.00;99666.69;4989076;28;20125;-80
2024/01/07 09:29:15;;;;;;;2.70;2.20;;;;;;;7.90;100.00;99642.50;4977672;28;20065;-79
2024/01/07 09:31:46;;;;;;;2.58;2.20;;;;;;;7.93;100.00;99643.06;4987728;28;20211;-79
2024/01/07 09:34:16;;;;;;;3.38;2.58;;;;;;;8.07;99.88;99680.59;4988914;28;20096;-79
2024/01/07 09:36:43;;;;;;;3.28;2.47;;;;;;;7.98;100.00;99668.22;4969081;28;20081;-78
2024/01/07 09:39:10;;;;;;;4.93;2.50;;;;;;;8.11;99.42;99682.81;4987282;28;20415;-80
2024/01/07 09:41:37;;;;;;;3.35;2.80;;;;;;;7.88;99.58;99647.94;4985175;28;20645;-80
2024/01/07 09:44:06;;;;;;;4.47;3.13;;;;;;;7.96;100.00;99678.97;4989654;28;20466;-80
2024/01/07 09:46:37;;;;;;;4.05;2.90;;;;;;;8.07;100.00;99691.16;4979960;28;20046;-80
2024/01/07 09:49:10;;;;;;;4.05;3.03;;;;;;;7.97;100.00;99677.16;4986843;28;20136;-81
2024/01/07 09:51:45;;;;;;;3.78;2.95;;;;;;;8.01;100.00;99699.66;4982912;28;20462;-79
2024/01/07 09:54:18;;;;;;;4.82;3.42;;;;;;;8.03;100.00;99684.50;4957887;28;20058;-80
2024/01/07 09:56:55;;;;;;;3.70;2.83;;;;;;;8.02;100.00;99674.91;4982168;28;20212;-80
2024/01/07 09:59:22;;;;;;;4.15;3.08;;;;;;;8.14;100.00;99698.38;4979629;28;20502;-80
2024/01/07 10:01:50;;;;;;;4.90;3.35;;;;;;;7.88;100.00;99652.38;4969532;28;20123;-80
2024/01/07 10:04:21;;;;;;;;;;;;;;;8.10;100.00;99691.69;5002820;28;20143;-80
2024/01/07 10:06:53;;;;;;;3.47;2.92;;;;;;;8.03;99.98;99677.38;4952132;28;19925;-82
2024/01/07 10:09:27;;;;;;;4.90;3.75;;;;;;;8.01;99.78;99673.22;4987956;28;20504;-80
2024/01/07 10:11:55;;;;;;;5.05;3.60;;;;;;;8.16;99.42;99692.97;4987302;28;20500;-78
2024/01/07 10:14:25;;;;;;;4.25;3.58;;;;;;;7.96;99.58;99667.53;4992196;28;20838;-81
2024/01/07 10:16:58;;;;;;;5.30;3.78;;;;;;;7.84;99.57;99649.22;4969832;28;20106;-80
2024/01/07 10:19:26;;;;;;;4.22;3.65;;;;;;;7.90;99.31;99656.56;5004461;28;20536;-80
2024/01/07 10:22:01;;;;;;;7.90;4.25;;;;;;;8.07;98.30;99672.66;4988375;28;20049;-81
2024/01/07 10:24:51;;;;;;;5.50;3.58;;;;;;;8.09;99.26;99690.06;4979295;28;20066;-81
2024/01/07 10:27:18;;;;;;;7.35;4.28;;;;;;;7.91;99.45;99671.47;4959376;28;20053;-79
2024/01/07 10:29:49;;;;;;;4.75;4.18;;;;;;;8.05;100.00;99682.53;4962132;28;20132;-80
2024/01/07 10:32:22;;;;;;;5.72;4.32;;;;;;;8.06;100.00;99692.97;4961004;28;20049;-80
2024/01/07 10:34:54;;;;;;;6.13;3.83;;;;;;;8.08;99.90;99701.63;4947160;28;20061;-80
2024/01/07 10:37:22;;;;;;;6.78;4.40;;;;;;;8.10;100.00;99698.81;4989141;28;20091;-79
2024/01/07 10:39:49;;;;;;;9.25;4.03;;;;;;;7.96;99.75;99681.59;4988220;28;20045;-79
2024/01/07 10:42:19;;;;;;;7.35;4.80;;;;;;;8.01;100.00;99678.50;4979051;28;20054;-80
2024/01/07 10:44:48;;;;;;;5.85;4.38;;;;;;;7.88;99.75;99660.31;4990656;28;20178;-82
2024/01/07 10:47:19;;;;;;;9.85;5.28;;;;;;;7.96;100.00;99678.09;4998252;28;20463;-80
2024/01/07 10:49:50;;;;;;;6.97;4.93;;;;;;;8.13;100.00;99701.16;4992515;28;20255;-79
2024/01/07 10:52:24;;;;;;;7.22;5.72;;;;;;;8.11;100.00;99692.56;5002008;28;20139;-79
2024/01/07 10:54:51;;;;;;;7.95;5.60;;;;;;;8.12;100.00;99688.94;4974393;28;20424;-81
2024/01/07 10:57:35;;;;;;;5.25;3.53;;;;;;;8.22;100.00;99695.00;4996174;28;20056;-81
2024/01/07 11:00:07;;;;;;;6.05;4.68;;;;;;;8.15;99.84;99683.34;4982701;28;20049;-80
2024/01/07 11:02:47;;;;;;;8.13;4.72;;;;;;;8.08;99.52;99661.97;4998464;28;20084;-80
2024/01/07 11:05:54;;;;;;;6.03;4.72;;;;;;;8.03;99.01;99658.88;4975234;28;20045;-79
2024/01/07 11:08:32;;;;;;;8.30;4.93;;;;;;;8.16;99.63;99689.50;4985400;28;20141;-79
2024/01/07 11:11:16;;;;;;;7.82;5.05;;;;;;;7.75;99.06;99621.00;4984600;28;20512;-79
2024/01/07 11:13:44;;;;;;;6.68;5.30;;;;;;;7.92;99.58;99640.56;4998135;28;20136;-80
2024/01/07 11:16:12;;;;;;;8.50;5.45;;;;;;;8.05;99.62;99656.09;4977001;28;20040;-79
2024/01/07 11:18:51;;;;;;;7.68;5.50;;;;;;;8.19;99.59;99674.16;5010980;28;20076;-79
2024/01/07 11:21:26;;;;;;;8.52;5.22;;;;;;;8.15;99.45;99670.13;4989772;28;20471;-77
2024/01/07 11:23:54;;;;;;;8.68;5.45;;;;;;;8.09;99.86;99663.63;5005265;28;20287;-80
2024/01/07 11:26:21;;;;;;;9.65;5.95;;;;;;;7.59;99.82;99581.94;4981289;28;20126;-78
2024/01/07 11:28:55;;;;;;;7.47;5.32;;;;;;;8.17;100.00;99670.00;4977480;28;20359;-80
2024/01/07 11:31:41;;;;;;;8.30;6.18;;;;;;;8.19;99.11;99665.41;4979309;28;20465;-79
2024/01/07 11:34:09;;;;;;;11.32;6.43;;;;;;;8.22;99.63;99663.28;4979220;28;20135;-78
2024/01/07 11:36:38;;;;;;;6.43;5.78;;;;;;;8.27;99.16;99654.94;4963096;28;20156;-80
2024/01/07 11:39:10;;;;;;;10.00;6.93;;;;;;;8.26;98.85;99653.28;4991603;28;20053;-81